createdAt,value
2017-08-12T00:01:43.328Z,14.30
2017-08-12T00:04:11.486Z,14.20
2017-08-12T00:06:39.662Z,14.30
2017-08-12T00:09:07.841Z,14.30
2017-08-12T00:11:36.009Z,14.30
2017-08-12T00:14:04.122Z,14.30
2017-08-12T00:16:32.219Z,14.30
2017-08-12T00:19:00.327Z,14.30
2017-08-12T00:21:28.438Z,14.30
2017-08-12T00:23:56.534Z,14.30
2017-08-12T00:26:24.662Z,14.30
2017-08-12T00:28:53.542Z,14.30
2017-08-12T00:31:21.634Z,14.40
2017-08-12T00:33:50.515Z,14.40
2017-08-12T00:36:19.374Z,14.40
2017-08-12T00:38:47.459Z,14.40
2017-08-12T00:41:15.583Z,14.40
2017-08-12T00:43:43.686Z,14.40
2017-08-12T00:46:11.794Z,14.40
2017-08-12T00:48:40.672Z,14.40
2017-08-12T00:51:08.796Z,14.30
2017-08-12T00:53:37.314Z,14.30
2017-08-12T00:56:05.796Z,14.40
2017-08-12T00:58:33.918Z,14.30
2017-08-12T01:01:02.016Z,14.30
2017-08-12T01:03:30.123Z,14.30
2017-08-12T01:05:58.231Z,14.40
2017-08-12T01:08:26.319Z,14.40
2017-08-12T01:10:54.442Z,14.30
2017-08-12T01:13:22.531Z,14.30
2017-08-12T01:15:50.971Z,14.30
2017-08-12T01:18:19.065Z,14.30
2017-08-12T01:20:47.127Z,14.30
2017-08-12T01:23:15.959Z,14.30
2017-08-12T01:25:44.014Z,14.30
2017-08-12T01:28:12.498Z,14.20
2017-08-12T01:30:40.630Z,14.20
2017-08-12T01:33:08.699Z,14.10
2017-08-12T01:35:36.785Z,14.20
2017-08-12T01:38:04.913Z,14.20
2017-08-12T01:40:33.769Z,14.20
2017-08-12T01:43:02.620Z,14.20
2017-08-12T01:45:30.751Z,14.20
2017-08-12T01:47:58.806Z,14.20
2017-08-12T01:50:26.920Z,14.20
2017-08-12T01:52:55.128Z,14.30
2017-08-12T01:55:23.206Z,14.30
2017-08-12T01:57:51.290Z,14.30
2017-08-12T02:00:19.398Z,14.30
2017-08-12T02:02:48.250Z,14.30
2017-08-12T02:05:16.370Z,14.30
2017-08-12T02:07:44.458Z,14.40
2017-08-12T02:10:12.545Z,14.40
2017-08-12T02:12:41.061Z,14.40
2017-08-12T02:15:09.154Z,14.40
2017-08-12T02:17:38.006Z,14.40
2017-08-12T02:20:06.121Z,14.40
2017-08-12T02:22:34.986Z,14.40
2017-08-12T02:25:03.071Z,14.40
2017-08-12T02:27:31.947Z,14.40
2017-08-12T02:30:00.062Z,14.40
2017-08-12T02:32:28.147Z,14.40
2017-08-12T02:34:56.639Z,14.30
2017-08-12T02:37:24.754Z,14.30
2017-08-12T02:39:52.839Z,14.20
2017-08-12T02:42:21.702Z,14.20
2017-08-12T02:44:49.814Z,14.30
2017-08-12T02:47:17.938Z,14.30
2017-08-12T02:49:46.017Z,14.30
2017-08-12T02:52:14.115Z,14.30
2017-08-12T02:54:42.995Z,14.30
2017-08-12T02:57:11.097Z,14.30
2017-08-12T02:59:39.190Z,14.30
2017-08-12T03:02:07.333Z,14.30
2017-08-12T03:04:35.446Z,14.20
2017-08-12T03:07:03.538Z,14.30
2017-08-12T03:09:31.681Z,14.30
2017-08-12T03:11:59.766Z,14.30
2017-08-12T03:14:27.842Z,14.30
2017-08-12T03:16:56.042Z,14.30
2017-08-12T03:19:24.225Z,14.30
2017-08-12T03:21:52.314Z,14.30
2017-08-12T03:24:20.446Z,14.30
2017-08-12T03:26:48.635Z,14.30
2017-08-12T03:29:16.810Z,14.20
2017-08-12T03:31:44.986Z,14.20
2017-08-12T03:34:13.165Z,14.20
2017-08-12T03:36:41.335Z,14.20
2017-08-12T03:39:09.422Z,14.20
2017-08-12T03:41:37.583Z,14.20
2017-08-12T03:44:05.670Z,14.10
2017-08-12T03:46:33.835Z,14.10
2017-08-12T03:49:01.938Z,14.10
2017-08-12T03:51:30.503Z,14.20
2017-08-12T03:53:58.652Z,14.20
2017-08-12T03:56:26.767Z,14.20
2017-08-12T03:58:54.866Z,14.20
2017-08-12T04:01:22.973Z,14.20
2017-08-12T04:03:51.158Z,14.20
2017-08-12T04:06:19.329Z,14.20
2017-08-12T04:08:47.440Z,14.20
2017-08-12T04:11:16.307Z,14.20
2017-08-12T04:13:45.890Z,14.20
2017-08-12T04:16:13.992Z,14.20
2017-08-12T04:18:42.866Z,14.10
2017-08-12T04:21:10.982Z,14.10
2017-08-12T04:23:39.074Z,14.10
2017-08-12T04:26:07.288Z,14.10
2017-08-12T04:28:35.386Z,14.10
2017-08-12T04:31:04.230Z,14.00
2017-08-12T04:33:32.338Z,14.10
2017-08-12T04:36:01.186Z,14.10
2017-08-12T04:38:29.786Z,14.10
2017-08-12T04:40:58.261Z,14.10
2017-08-12T04:43:26.850Z,14.00
2017-08-12T04:45:55.030Z,14.10
2017-08-12T04:48:23.137Z,14.10
2017-08-12T04:50:51.268Z,14.00
2017-08-12T04:53:19.379Z,14.00
2017-08-12T04:55:48.333Z,14.00
2017-08-12T04:58:16.518Z,14.10
2017-08-12T05:00:44.682Z,14.10
2017-08-12T05:03:12.770Z,14.10
2017-08-12T05:05:40.934Z,14.00
2017-08-12T05:08:09.518Z,13.90
2017-08-12T05:10:37.685Z,14.00
2017-08-12T05:13:05.769Z,14.00
2017-08-12T05:15:33.934Z,14.00
2017-08-12T05:18:02.110Z,14.00
2017-08-12T05:20:30.277Z,14.00
2017-08-12T05:22:58.459Z,13.90
2017-08-12T05:25:26.630Z,13.90
2017-08-12T05:27:56.257Z,13.90
2017-08-12T05:30:24.341Z,13.90
2017-08-12T05:32:53.201Z,13.80
2017-08-12T05:35:21.374Z,13.90
2017-08-12T05:37:49.567Z,13.90
2017-08-12T05:40:18.133Z,13.90
2017-08-12T05:42:46.311Z,13.90
2017-08-12T05:45:14.482Z,13.90
2017-08-12T05:47:42.601Z,13.90
2017-08-12T05:50:10.726Z,13.90
2017-08-12T05:52:39.314Z,14.10
2017-08-12T05:55:07.490Z,14.10
2017-08-12T05:57:35.666Z,14.10
2017-08-12T06:00:03.838Z,14.10
2017-08-12T06:02:32.418Z,14.20
2017-08-12T06:05:00.510Z,14.20
2017-08-12T06:07:28.621Z,14.30
2017-08-12T06:09:56.704Z,14.30
2017-08-12T06:12:24.918Z,14.50
2017-08-12T06:14:53.398Z,14.40
2017-08-12T06:17:21.985Z,14.40
2017-08-12T06:19:50.150Z,14.40
2017-08-12T06:22:18.325Z,14.40
2017-08-12T06:24:46.502Z,14.40
2017-08-12T06:27:14.589Z,14.50
2017-08-12T06:29:42.746Z,14.50
2017-08-12T06:32:10.922Z,14.60
2017-08-12T06:34:39.069Z,14.60
2017-08-12T06:37:07.274Z,14.70
2017-08-12T06:39:35.385Z,14.70
2017-08-12T06:42:03.469Z,14.70
2017-08-12T06:44:31.553Z,14.80
2017-08-12T06:46:59.686Z,14.90
2017-08-12T06:49:28.560Z,14.90
2017-08-12T06:51:56.650Z,14.90
2017-08-12T06:54:25.534Z,14.90
2017-08-12T06:56:53.686Z,15.00
2017-08-12T06:59:21.795Z,15.10
2017-08-12T07:01:50.738Z,15.10
2017-08-12T07:04:18.859Z,15.20
2017-08-12T07:06:47.706Z,15.20
2017-08-12T07:09:16.607Z,15.20
2017-08-12T07:11:44.714Z,15.30
2017-08-12T07:14:13.675Z,15.40
2017-08-12T07:16:41.842Z,15.40
2017-08-12T07:19:09.926Z,15.50
2017-08-12T07:21:38.030Z,15.70
2017-08-12T07:24:06.901Z,15.80
2017-08-12T07:26:35.773Z,15.80
2017-08-12T07:29:03.878Z,15.80
2017-08-12T07:31:32.725Z,15.90
2017-08-12T07:34:00.910Z,15.90
2017-08-12T07:36:29.087Z,16.00
2017-08-12T07:38:57.182Z,16.10
2017-08-12T07:41:26.145Z,16.40
2017-08-12T07:43:54.322Z,16.60
2017-08-12T07:46:22.497Z,16.80
2017-08-12T07:48:50.678Z,16.70
2017-08-12T07:51:18.845Z,16.70
2017-08-12T07:53:47.723Z,16.50
2017-08-12T07:56:15.810Z,16.40
2017-08-12T07:58:43.906Z,16.40
2017-08-12T08:01:12.062Z,16.50
2017-08-12T08:03:40.941Z,16.50
2017-08-12T08:06:09.118Z,16.70
2017-08-12T08:08:37.295Z,16.70
2017-08-12T08:11:05.467Z,16.70
2017-08-12T08:13:34.054Z,16.60
2017-08-12T08:16:02.229Z,16.60
2017-08-12T08:18:31.014Z,16.70
2017-08-12T08:20:59.090Z,16.80
2017-08-12T08:23:27.258Z,16.80
2017-08-12T08:25:55.378Z,16.80
2017-08-12T08:28:24.210Z,16.80
2017-08-12T08:30:52.286Z,16.70
2017-08-12T08:33:20.878Z,16.70
2017-08-12T08:35:49.054Z,16.70
2017-08-12T08:38:17.151Z,16.40
2017-08-12T08:40:45.222Z,16.40
2017-08-12T08:43:13.374Z,16.40
2017-08-12T08:45:41.550Z,16.40
2017-08-12T08:48:09.718Z,16.30
2017-08-12T08:50:37.810Z,16.30
2017-08-12T08:53:07.489Z,16.10
2017-08-12T08:55:35.983Z,16.00
2017-08-12T08:58:04.160Z,16.00
2017-08-12T09:00:32.265Z,16.00
2017-08-12T09:03:01.108Z,16.00
2017-08-12T09:05:29.606Z,16.00
2017-08-12T09:07:58.214Z,15.90
2017-08-12T09:10:26.278Z,16.10
2017-08-12T09:12:54.434Z,16.10
2017-08-12T09:15:22.614Z,16.10
2017-08-12T09:17:50.673Z,16.10
2017-08-12T09:20:18.854Z,16.10
2017-08-12T09:22:47.834Z,16.10
2017-08-12T09:25:16.743Z,16.10
2017-08-12T09:27:44.910Z,16.20
2017-08-12T09:30:13.793Z,16.20
2017-08-12T09:32:41.975Z,16.30
2017-08-12T09:35:10.447Z,16.40
2017-08-12T09:37:39.317Z,16.50
2017-08-12T09:40:07.390Z,16.50
2017-08-12T09:42:35.494Z,16.60
2017-08-12T09:45:03.594Z,16.60
2017-08-12T09:47:32.462Z,16.60
2017-08-12T09:50:00.633Z,16.50
2017-08-12T09:52:28.710Z,16.60
2017-08-12T09:54:57.376Z,16.60
2017-08-12T09:57:26.279Z,16.60
2017-08-12T09:59:54.374Z,16.60
2017-08-12T10:02:22.526Z,16.40
2017-08-12T10:04:50.699Z,16.50
2017-08-12T10:07:18.875Z,16.50
2017-08-12T10:09:47.757Z,16.50
2017-08-12T10:12:15.938Z,16.70
2017-08-12T10:14:44.422Z,16.70
2017-08-12T10:17:12.590Z,16.70
2017-08-12T10:19:40.689Z,16.70
2017-08-12T10:22:09.158Z,16.60
2017-08-12T10:24:37.331Z,16.60
2017-08-12T10:27:05.798Z,16.50
2017-08-12T10:29:33.979Z,16.50
2017-08-12T10:32:02.150Z,16.50
2017-08-12T10:34:30.217Z,16.70
2017-08-12T10:36:58.318Z,16.60
2017-08-12T10:39:26.394Z,16.70
2017-08-12T10:41:54.543Z,16.70
2017-08-12T10:44:22.713Z,16.70
2017-08-12T10:46:50.892Z,16.70
2017-08-12T10:49:19.066Z,16.70
2017-08-12T10:51:47.178Z,16.70
2017-08-12T10:54:15.730Z,16.70
2017-08-12T10:56:43.898Z,16.70
2017-08-12T10:59:12.070Z,16.80
2017-08-12T11:01:40.145Z,16.80
2017-08-12T11:04:08.246Z,16.90
2017-08-12T11:06:37.081Z,16.90
2017-08-12T11:09:05.574Z,16.90
2017-08-12T11:11:33.762Z,17.00
2017-08-12T11:14:01.934Z,17.00
2017-08-12T11:16:30.031Z,17.00
2017-08-12T11:18:58.498Z,17.00
2017-08-12T11:21:26.602Z,16.90
2017-08-12T11:23:56.441Z,17.00
2017-08-12T11:26:24.546Z,17.00
2017-08-12T11:28:52.722Z,16.90
2017-08-12T11:31:20.802Z,16.90
2017-08-12T11:33:50.406Z,17.00
2017-08-12T11:36:18.494Z,17.00
2017-08-12T11:38:46.646Z,16.90
2017-08-12T11:41:15.138Z,17.00
2017-08-12T11:43:43.302Z,17.10
2017-08-12T11:46:11.474Z,17.10
2017-08-12T11:48:39.650Z,17.10
2017-08-12T11:51:07.822Z,17.20
2017-08-12T11:53:36.007Z,17.30
2017-08-12T11:56:04.590Z,17.30
2017-08-12T11:58:32.678Z,17.20
2017-08-12T12:01:00.756Z,17.20
2017-08-12T12:03:29.313Z,17.20
2017-08-12T12:05:58.193Z,17.20
2017-08-12T12:08:26.377Z,17.20
2017-08-12T12:10:54.550Z,17.30
2017-08-12T12:13:22.726Z,17.40
2017-08-12T12:15:50.899Z,17.40
2017-08-12T12:18:19.001Z,17.50
2017-08-12T12:20:47.658Z,17.60
2017-08-12T12:23:15.843Z,17.60
2017-08-12T12:25:44.011Z,17.60
2017-08-12T12:28:12.186Z,17.70
2017-08-12T12:30:40.298Z,17.60
2017-08-12T12:33:09.241Z,17.60
2017-08-12T12:35:37.418Z,17.70
2017-08-12T12:38:05.594Z,17.80
2017-08-12T12:40:33.766Z,17.80
2017-08-12T12:43:01.952Z,17.90
2017-08-12T12:45:30.041Z,17.90
2017-08-12T12:47:58.124Z,17.80
2017-08-12T12:50:26.987Z,17.80
2017-08-12T12:52:55.079Z,17.70
2017-08-12T12:55:23.971Z,17.60
2017-08-12T12:57:52.933Z,17.50
2017-08-12T13:00:21.015Z,17.70
2017-08-12T13:02:49.183Z,17.70
2017-08-12T13:05:17.359Z,17.70
2017-08-12T13:07:45.510Z,17.60
2017-08-12T13:10:13.598Z,17.60
2017-08-12T13:12:41.678Z,17.60
2017-08-12T13:15:09.850Z,17.50
2017-08-12T13:17:37.961Z,17.40
2017-08-12T13:20:06.798Z,17.30
2017-08-12T13:22:34.890Z,17.30
2017-08-12T13:25:03.019Z,17.30
2017-08-12T13:27:31.126Z,17.20
2017-08-12T13:29:59.202Z,17.20
2017-08-12T13:32:27.374Z,17.20
2017-08-12T13:34:55.546Z,17.20
2017-08-12T13:37:23.723Z,17.20
2017-08-12T13:39:51.822Z,17.20
2017-08-12T13:42:20.690Z,17.10
2017-08-12T13:44:48.772Z,17.20
2017-08-12T13:47:16.845Z,17.20
2017-08-12T13:49:44.946Z,17.10
2017-08-12T13:52:13.792Z,17.10
2017-08-12T13:54:41.973Z,17.10
2017-08-12T13:57:10.861Z,17.00
2017-08-12T13:59:38.982Z,17.00
2017-08-12T14:02:07.516Z,16.90
2017-08-12T14:04:35.589Z,16.90
2017-08-12T14:07:03.698Z,16.90
2017-08-12T14:09:31.775Z,16.90
2017-08-12T14:12:00.618Z,16.90
2017-08-12T14:14:28.714Z,16.90
2017-08-12T14:16:56.842Z,16.90
2017-08-12T14:19:25.041Z,16.90
2017-08-12T14:21:53.118Z,17.00
2017-08-12T14:24:22.002Z,17.10
2017-08-12T14:26:50.078Z,17.00
2017-08-12T14:29:18.178Z,17.00
2017-08-12T14:31:46.645Z,16.90
2017-08-12T14:34:14.723Z,16.90
2017-08-12T14:36:42.874Z,16.80
2017-08-12T14:39:11.250Z,16.80
2017-08-12T14:41:39.325Z,16.70
2017-08-12T14:44:07.403Z,16.70
2017-08-12T14:46:35.494Z,16.70
2017-08-12T14:49:03.567Z,16.70
2017-08-12T14:51:32.438Z,16.80
2017-08-12T14:54:00.522Z,16.80
2017-08-12T14:56:28.593Z,16.80
2017-08-12T14:58:56.743Z,16.80
2017-08-12T15:01:24.922Z,16.90
2017-08-12T15:03:53.098Z,16.90
2017-08-12T15:06:21.687Z,16.90
2017-08-12T15:08:49.858Z,16.90
2017-08-12T15:11:18.030Z,17.00
2017-08-12T15:13:46.126Z,17.10
2017-08-12T15:16:15.605Z,17.00
2017-08-12T15:18:44.090Z,17.00
2017-08-12T15:21:12.158Z,17.00
2017-08-12T15:23:40.338Z,17.00
2017-08-12T15:26:08.429Z,17.10
2017-08-12T15:28:36.502Z,17.00
2017-08-12T15:31:04.612Z,16.90
2017-08-12T15:33:32.681Z,17.00
2017-08-12T15:36:00.790Z,17.00
2017-08-12T15:38:28.974Z,16.90
2017-08-12T15:40:57.051Z,16.90
2017-08-12T15:43:25.214Z,16.90
2017-08-12T15:45:53.306Z,16.90
2017-08-12T15:48:21.466Z,16.80
2017-08-12T15:50:49.639Z,16.80
2017-08-12T15:53:17.809Z,16.80
2017-08-12T15:55:45.907Z,16.80
2017-08-12T15:58:15.511Z,16.80
2017-08-12T16:00:43.582Z,16.80
2017-08-12T16:03:12.145Z,16.80
2017-08-12T16:05:40.322Z,16.80
2017-08-12T16:08:08.403Z,16.90
2017-08-12T16:10:36.595Z,16.80
2017-08-12T16:13:05.461Z,17.00
2017-08-12T16:15:33.634Z,17.00
2017-08-12T16:18:01.902Z,17.10
2017-08-12T16:20:30.083Z,17.10
2017-08-12T16:22:58.923Z,17.00
2017-08-12T16:25:27.439Z,17.00
2017-08-12T16:27:55.506Z,17.00
2017-08-12T16:30:23.583Z,17.10
2017-08-12T16:32:51.702Z,17.20
2017-08-12T16:35:19.778Z,17.20
2017-08-12T16:37:48.627Z,17.20
2017-08-12T16:40:16.731Z,17.20
2017-08-12T16:42:44.870Z,17.10
2017-08-12T16:45:13.369Z,17.00
2017-08-12T16:47:41.533Z,17.00
2017-08-12T16:50:09.610Z,17.00
2017-08-12T16:52:37.803Z,17.00
2017-08-12T16:55:06.673Z,17.00
2017-08-12T16:57:34.750Z,17.10
2017-08-12T17:00:03.318Z,17.00
2017-08-12T17:02:31.814Z,17.00
2017-08-12T17:04:59.916Z,17.00
2017-08-12T17:07:28.408Z,17.00
2017-08-12T17:09:57.254Z,17.00
2017-08-12T17:12:25.838Z,16.90
2017-08-12T17:14:54.014Z,16.90
2017-08-12T17:17:22.231Z,16.80
2017-08-12T17:19:50.363Z,16.80
2017-08-12T17:22:18.534Z,16.80
2017-08-12T17:24:46.710Z,16.80
2017-08-12T17:27:14.786Z,16.70
2017-08-12T17:29:42.881Z,16.70
2017-08-12T17:32:10.954Z,16.70
2017-08-12T17:34:39.105Z,16.70
2017-08-12T17:37:07.588Z,16.70
2017-08-12T17:39:35.666Z,16.60
2017-08-12T17:42:03.839Z,16.70
2017-08-12T17:44:32.006Z,16.80
2017-08-12T17:47:00.590Z,17.00
2017-08-12T17:49:29.087Z,17.20
2017-08-12T17:51:57.181Z,17.10
2017-08-12T17:54:26.138Z,17.10
2017-08-12T17:56:54.307Z,17.10
2017-08-12T17:59:22.430Z,17.00
2017-08-12T18:01:50.554Z,17.00
2017-08-12T18:04:19.038Z,16.90
2017-08-12T18:06:47.214Z,16.90
2017-08-12T18:09:15.690Z,16.90
2017-08-12T18:11:43.865Z,16.80
2017-08-12T18:14:11.943Z,16.80
2017-08-12T18:16:40.019Z,16.80
2017-08-12T18:19:08.181Z,16.80
2017-08-12T18:21:36.359Z,16.80
2017-08-12T18:24:04.826Z,16.80
2017-08-12T18:26:33.410Z,16.80
2017-08-12T18:29:02.238Z,16.80
2017-08-12T18:31:31.086Z,16.80
2017-08-12T18:33:59.563Z,16.80
2017-08-12T18:36:27.664Z,16.90
2017-08-12T18:38:55.749Z,16.80
2017-08-12T18:41:23.830Z,16.80
2017-08-12T18:43:51.903Z,16.90
2017-08-12T18:46:20.775Z,16.80
2017-08-12T18:48:48.850Z,16.80
2017-08-12T18:51:17.322Z,16.80
2017-08-12T18:53:45.428Z,16.70
2017-08-12T18:56:14.262Z,16.70
2017-08-12T18:58:42.333Z,16.70
2017-08-12T19:01:10.427Z,16.70
2017-08-12T19:03:38.503Z,16.70
2017-08-12T19:06:06.603Z,16.70
2017-08-12T19:08:35.434Z,16.70
2017-08-12T19:11:03.538Z,16.70
2017-08-12T19:13:31.610Z,16.60
2017-08-12T19:15:59.690Z,16.60
2017-08-12T19:18:27.830Z,16.70
2017-08-12T19:20:55.910Z,16.70
2017-08-12T19:23:24.370Z,16.70
2017-08-12T19:25:52.470Z,16.90
2017-08-12T19:28:20.570Z,17.10
2017-08-12T19:30:49.425Z,17.20
2017-08-12T19:33:17.499Z,17.30
2017-08-12T19:35:45.614Z,17.30
2017-08-12T19:38:14.450Z,17.40
2017-08-12T19:40:42.526Z,17.40
2017-08-12T19:43:10.618Z,17.30
2017-08-12T19:45:38.690Z,17.30
2017-08-12T19:48:06.782Z,17.30
2017-08-12T19:50:35.282Z,17.40
2017-08-12T19:53:04.123Z,17.40
2017-08-12T19:55:32.221Z,17.40
2017-08-12T19:58:00.289Z,17.30
2017-08-12T20:00:28.394Z,17.30
2017-08-12T20:02:56.498Z,17.30
2017-08-12T20:05:24.698Z,17.40
2017-08-12T20:07:52.870Z,17.40
2017-08-12T20:10:21.041Z,17.50
2017-08-12T20:12:49.214Z,17.50
2017-08-12T20:15:17.703Z,17.60
2017-08-12T20:17:45.879Z,17.50
2017-08-12T20:20:13.953Z,17.50
2017-08-12T20:22:42.117Z,17.50
2017-08-12T20:25:11.002Z,17.50
2017-08-12T20:27:39.079Z,17.40
2017-08-12T20:30:07.174Z,17.20
2017-08-12T20:32:35.254Z,17.10
2017-08-12T20:35:04.206Z,17.10
2017-08-12T20:37:32.238Z,17.10
2017-08-12T20:40:00.314Z,17.00
2017-08-12T20:42:28.450Z,17.00
2017-08-12T20:44:56.618Z,17.00
2017-08-12T20:47:24.790Z,17.00
2017-08-12T20:49:54.186Z,16.90
2017-08-12T20:52:22.257Z,17.00
2017-08-12T20:54:50.437Z,17.00
2017-08-12T20:57:18.610Z,17.00
2017-08-12T20:59:46.782Z,16.90
2017-08-12T21:02:14.878Z,16.90
2017-08-12T21:04:42.954Z,16.90
2017-08-12T21:07:11.926Z,16.80
2017-08-12T21:09:40.022Z,16.90
2017-08-12T21:12:08.900Z,16.90
2017-08-12T21:14:37.027Z,16.90
2017-08-12T21:17:05.099Z,16.90
2017-08-12T21:19:33.610Z,16.90
2017-08-12T21:22:01.719Z,16.80
2017-08-12T21:24:30.571Z,16.90
2017-08-12T21:26:58.647Z,16.90
2017-08-12T21:29:27.026Z,16.90
2017-08-12T21:31:55.133Z,16.90
2017-08-12T21:34:23.978Z,16.90
2017-08-12T21:36:52.058Z,16.90
2017-08-12T21:39:20.934Z,16.90
2017-08-12T21:41:49.022Z,16.90
2017-08-12T21:44:17.498Z,17.00
2017-08-12T21:46:45.595Z,16.90
2017-08-12T21:49:14.444Z,17.00
2017-08-12T21:51:42.546Z,16.90
2017-08-12T21:54:11.031Z,16.90
2017-08-12T21:56:39.105Z,16.90
2017-08-12T21:59:07.222Z,16.90
2017-08-12T22:01:36.079Z,16.90
2017-08-12T22:04:04.164Z,16.90
2017-08-12T22:06:32.239Z,16.90
2017-08-12T22:09:01.191Z,16.80
2017-08-12T22:11:29.362Z,16.70
2017-08-12T22:13:57.540Z,16.70
2017-08-12T22:16:25.659Z,16.60
2017-08-12T22:18:53.783Z,16.60
2017-08-12T22:21:21.958Z,16.70
2017-08-12T22:23:50.544Z,16.80
2017-08-12T22:26:19.026Z,16.80
2017-08-12T22:28:47.199Z,16.80
2017-08-12T22:31:15.783Z,16.80
2017-08-12T22:33:43.954Z,16.80
2017-08-12T22:36:12.031Z,16.90
2017-08-12T22:38:40.729Z,16.90
2017-08-12T22:41:09.502Z,16.90
2017-08-12T22:43:37.682Z,16.90
2017-08-12T22:46:05.845Z,16.90
2017-08-12T22:48:34.026Z,16.90
2017-08-12T22:51:02.503Z,16.90
2017-08-12T22:53:31.398Z,16.90
2017-08-12T22:55:59.578Z,16.80
2017-08-12T22:58:28.158Z,16.80
2017-08-12T23:00:56.331Z,16.80
2017-08-12T23:03:24.799Z,16.80
2017-08-12T23:05:52.990Z,16.80
2017-08-12T23:08:21.570Z,16.80
2017-08-12T23:10:49.746Z,16.80
2017-08-12T23:13:17.921Z,16.80
2017-08-12T23:15:46.062Z,16.80
2017-08-12T23:18:14.267Z,16.90
2017-08-12T23:20:42.365Z,16.90
2017-08-12T23:23:10.513Z,16.90
2017-08-12T23:25:38.686Z,16.90
2017-08-12T23:28:06.763Z,16.90
2017-08-12T23:30:34.934Z,16.90
2017-08-12T23:33:03.110Z,16.90
2017-08-12T23:35:31.209Z,16.80
2017-08-12T23:38:00.088Z,17.00
2017-08-12T23:40:28.238Z,17.00
2017-08-12T23:42:56.418Z,16.80
2017-08-12T23:45:24.594Z,16.80
2017-08-12T23:47:52.774Z,16.80
2017-08-12T23:50:20.942Z,16.90
2017-08-12T23:52:49.119Z,16.90
2017-08-12T23:55:17.290Z,16.90
2017-08-12T23:57:45.758Z,16.90
